This is the latest recevied weather packets stored in our database for station/object KE5SXT-2. If no packets are shown the sender has not sent any weather packets the latest 10 day(s).
| Time | Temp. | Humidity | Pressure | Rain* | Wind** | Luminosity | Snow |
|---|---|---|---|---|---|---|---|
| 1777583421 | 22.78° C | 47% | 1013.2 hPa | 0 mm | - | - | - |
| 1777579846 | 23.89° C | 47% | 1013.7 hPa | 0 mm | - | - | - |
| 1777578646 | 23.89° C | 50% | 1013.3 hPa | 0 mm | - | - | - |
| 1777574421 | 22.22° C | 54% | 1013.8 hPa | 0 mm | - | - | - |
| 1777573221 | 21.67° C | 58% | 1013.6 hPa | 0 mm | - | - | - |
| 1777572021 | 21.11° C | 58% | 1014 hPa | 0 mm | - | - | - |
| 1777570220 | 19.44° C | 62% | 1013.8 hPa | 0 mm | - | - | - |
| 1777568446 | 18.89° C | 64% | 1014.2 hPa | 0 mm | - | - | - |
| 1777566020 | 17.78° C | 67% | 1013.6 hPa | 0 mm | - | - | - |
| 1777564845 | 17.78° C | 68% | 1013.9 hPa | 0 mm | - | - | - |
| 1777560620 | 16.11° C | 68% | 1012.3 hPa | 0 mm | - | - | - |
| 1777559420 | 16.11° C | 68% | 1013.5 hPa | 0 mm | - | - | - |
| 1777545022 | 16.67° C | 71% | 1013.7 hPa | 0 mm | - | - | - |
| 1777542647 | 16.67° C | 70% | 1013.5 hPa | 0 mm | - | - | - |
| 1777530621 | 17.78° C | 62% | 1013.5 hPa | 0 mm | - | - | - |
| 1777528221 | 17.78° C | 59% | 1013.5 hPa | 0 mm | - | - | - |
| 1777525274 | 18.33° C | 58% | 1013.6 hPa | 0 mm | - | - | - |
| 1777524022 | 18.89° C | 57% | 1013.2 hPa | 0 mm | - | - | - |
| 1777518021 | 21.11° C | 53% | 1012.2 hPa | 0 mm | - | - | - |
| 1777515622 | 22.22° C | 51% | 1011 hPa | 0 mm | - | - | - |
| 1777514447 | 22.22° C | 50% | 1011.1 hPa | 0 mm | - | - | - |
| 1777512622 | 22.78° C | 49% | 1010.4 hPa | 0 mm | - | - | - |
| 1777511425 | 23.33° C | 48% | 1011 hPa | 0 mm | - | - | - |
| 1777509671 | 23.89° C | 47% | 1011 hPa | 0 mm | - | - | - |
| 1777508421 | 25° C | 46% | 1011 hPa | 0 mm | - | - | - |
* Rain latest hour (hover to see other rain measurements)
** Current wind speed in m/s (hover to see current wind gust speed)